createdAt,value
2022-10-11T00:01:35.097Z,22.65
2022-10-11T00:04:01.618Z,22.64
2022-10-11T00:06:28.184Z,22.63
2022-10-11T00:08:54.651Z,22.61
2022-10-11T00:11:21.122Z,22.61
2022-10-11T00:13:47.584Z,22.61
2022-10-11T00:16:15.337Z,22.61
2022-10-11T00:18:41.935Z,22.58
2022-10-11T00:21:12.094Z,22.58
2022-10-11T00:23:39.164Z,22.59
2022-10-11T00:26:09.042Z,22.58
2022-10-11T00:28:37.000Z,22.58
2022-10-11T00:31:10.165Z,22.56
2022-10-11T00:33:37.044Z,22.56
2022-10-11T00:36:04.598Z,22.53
2022-10-11T00:38:32.065Z,22.53
2022-10-11T00:40:59.664Z,22.52
2022-10-11T00:43:29.283Z,22.52
2022-10-11T00:45:55.658Z,22.51
2022-10-11T00:48:27.619Z,22.50
2022-10-11T00:50:57.284Z,22.49
2022-10-11T00:53:24.388Z,22.49
2022-10-11T00:56:00.543Z,22.49
2022-10-11T00:58:27.134Z,22.48
2022-10-11T01:00:54.254Z,22.46
2022-10-11T01:03:23.709Z,22.48
2022-10-11T01:05:50.398Z,22.47
2022-10-11T01:08:16.949Z,22.46
2022-10-11T01:10:43.396Z,22.44
2022-10-11T01:13:22.103Z,22.43
2022-10-11T01:16:00.127Z,22.43
2022-10-11T01:18:45.346Z,22.43
2022-10-11T01:21:25.560Z,22.42
2022-10-11T01:24:14.726Z,22.41
2022-10-11T01:26:46.867Z,22.39
2022-10-11T01:29:49.399Z,22.39
2022-10-11T01:32:29.307Z,22.40
2022-10-11T01:35:06.520Z,22.38
2022-10-11T01:37:37.192Z,22.37
2022-10-11T01:40:28.188Z,22.36
2022-10-11T01:42:56.907Z,22.36
2022-10-11T01:45:23.545Z,22.32
2022-10-11T01:48:02.428Z,22.32
2022-10-11T01:50:44.271Z,22.33
2022-10-11T01:53:30.946Z,22.33
2022-10-11T01:56:09.585Z,22.31
2022-10-11T01:58:43.043Z,22.31
2022-10-11T02:01:31.061Z,22.30
2022-10-11T02:04:10.859Z,22.29
2022-10-11T02:06:51.228Z,22.28
2022-10-11T02:09:42.639Z,22.28
2022-10-11T02:12:16.331Z,22.25
2022-10-11T02:14:47.027Z,22.25
2022-10-11T02:17:25.187Z,22.26
2022-10-11T02:19:54.490Z,22.24
2022-10-11T02:22:26.266Z,22.25
2022-10-11T02:24:56.081Z,22.25
2022-10-11T02:27:26.624Z,22.23
2022-10-11T02:29:55.381Z,22.23
2022-10-11T02:32:24.215Z,22.23
2022-10-11T02:34:56.846Z,22.22
2022-10-11T02:37:32.580Z,22.22
2022-10-11T02:40:02.094Z,22.22
2022-10-11T02:42:33.962Z,22.21
2022-10-11T02:45:37.926Z,22.20
2022-10-11T02:48:06.070Z,22.18
2022-10-11T02:50:32.757Z,22.19
2022-10-11T02:52:59.493Z,22.19
2022-10-11T02:55:25.959Z,22.16
2022-10-11T02:57:52.887Z,22.15
2022-10-11T03:00:19.448Z,22.16
2022-10-11T03:02:45.861Z,22.16
2022-10-11T03:05:12.332Z,22.15
2022-10-11T03:07:38.817Z,22.15
2022-10-11T03:10:06.727Z,22.13
2022-10-11T03:12:33.647Z,22.13
2022-10-11T03:15:01.824Z,22.14
2022-10-11T03:17:36.889Z,22.14
2022-10-11T03:20:06.273Z,22.12
2022-10-11T03:22:32.697Z,22.12
2022-10-11T03:25:03.579Z,22.10
2022-10-11T03:27:31.433Z,22.10
2022-10-11T03:29:57.942Z,22.10
2022-10-11T03:32:24.797Z,22.09
2022-10-11T03:34:51.301Z,22.09
2022-10-11T03:37:18.245Z,22.07
2022-10-11T03:39:45.732Z,22.09
2022-10-11T03:42:13.074Z,22.08
2022-10-11T03:44:39.648Z,22.08
2022-10-11T03:47:06.085Z,22.07
2022-10-11T03:49:32.526Z,22.06
2022-10-11T03:51:59.170Z,22.05
2022-10-11T03:54:25.992Z,22.05
2022-10-11T03:56:52.715Z,22.05
2022-10-11T03:59:19.090Z,22.04
2022-10-11T04:01:45.578Z,22.02
2022-10-11T04:04:12.038Z,22.03
2022-10-11T04:06:38.440Z,22.03
2022-10-11T04:09:05.055Z,22.00
2022-10-11T04:11:31.489Z,21.99
2022-10-11T04:13:57.951Z,22.00
2022-10-11T04:16:24.476Z,22.00
2022-10-11T04:18:50.887Z,21.98
2022-10-11T04:21:17.920Z,21.98
2022-10-11T04:23:44.399Z,21.99
2022-10-11T04:26:10.816Z,21.97
2022-10-11T04:28:37.337Z,21.97
2022-10-11T04:31:07.941Z,21.98
2022-10-11T04:36:00.819Z,21.98
2022-10-11T04:38:27.291Z,21.97
2022-10-11T04:40:53.729Z,21.97
2022-10-11T04:43:20.298Z,21.96
2022-10-11T04:45:46.797Z,21.93
2022-10-11T04:48:14.047Z,21.92
2022-10-11T04:50:40.517Z,21.92
2022-10-11T04:53:07.069Z,21.91
2022-10-11T04:55:33.490Z,21.91
2022-10-11T04:58:00.034Z,21.92
2022-10-11T05:00:27.468Z,21.92
2022-10-11T05:02:54.123Z,21.91
2022-10-11T05:05:20.554Z,21.90
2022-10-11T05:07:46.982Z,21.89
2022-10-11T05:10:13.377Z,21.89
2022-10-11T05:12:39.821Z,21.90
2022-10-11T05:15:07.093Z,21.88
2022-10-11T05:17:33.739Z,21.88
2022-10-11T05:20:00.181Z,21.88
2022-10-11T05:22:26.785Z,21.87
2022-10-11T05:24:53.194Z,21.86
2022-10-11T05:27:19.609Z,21.87
2022-10-11T05:29:46.081Z,21.86
2022-10-11T05:32:12.618Z,21.85
2022-10-11T05:34:39.057Z,21.83
2022-10-11T05:37:05.671Z,21.81
2022-10-11T05:39:32.421Z,21.82
2022-10-11T05:41:58.898Z,21.85
2022-10-11T05:44:25.464Z,21.85
2022-10-11T05:46:51.888Z,21.84
2022-10-11T05:49:18.319Z,21.86
2022-10-11T05:51:44.737Z,21.86
2022-10-11T05:54:11.179Z,21.89
2022-10-11T05:56:37.733Z,21.87
2022-10-11T05:59:04.798Z,21.84
2022-10-11T06:01:31.245Z,21.89
2022-10-11T06:03:57.747Z,21.89
2022-10-11T06:06:24.194Z,21.90
2022-10-11T06:08:50.848Z,21.90
2022-10-11T06:11:20.729Z,21.91
2022-10-11T06:13:47.282Z,21.91
2022-10-11T06:16:13.788Z,21.93
2022-10-11T06:18:40.780Z,21.93
2022-10-11T06:21:07.448Z,21.94
2022-10-11T06:26:07.055Z,21.96
2022-10-11T06:31:21.948Z,21.99
2022-10-11T06:33:48.464Z,21.99
2022-10-11T06:36:15.580Z,22.01
2022-10-11T06:38:45.025Z,22.03
2022-10-11T06:41:20.672Z,22.04
2022-10-11T06:43:49.375Z,22.05
2022-10-11T06:46:16.802Z,22.07
2022-10-11T06:48:44.474Z,22.09
2022-10-11T06:51:15.785Z,22.12
2022-10-11T06:53:42.650Z,22.15
2022-10-11T06:56:11.805Z,22.15
2022-10-11T06:58:39.334Z,22.18
2022-10-11T07:01:12.194Z,22.18
2022-10-11T07:03:39.138Z,22.19
2022-10-11T07:06:09.915Z,22.21
2022-10-11T07:08:37.566Z,22.23
2022-10-11T07:11:06.724Z,22.26
2022-10-11T07:13:33.157Z,22.24
2022-10-11T07:16:04.672Z,22.30
2022-10-11T07:18:32.030Z,22.34
2022-10-11T07:21:02.056Z,22.36
2022-10-11T07:23:28.496Z,22.39
2022-10-11T07:25:55.250Z,22.43
2022-10-11T07:28:22.640Z,22.48
2022-10-11T07:30:49.478Z,22.51
2022-10-11T07:33:16.184Z,22.54
2022-10-11T07:35:45.993Z,22.53
2022-10-11T07:38:14.964Z,22.62
2022-10-11T07:40:43.733Z,22.67
2022-10-11T07:43:11.514Z,22.71
2022-10-11T07:45:42.103Z,22.77
2022-10-11T07:48:09.029Z,22.82
2022-10-11T07:50:35.662Z,22.87
2022-10-11T07:53:02.771Z,22.94
2022-10-11T07:55:30.056Z,22.99
2022-10-11T07:57:57.683Z,23.05
2022-10-11T08:00:24.269Z,23.03
2022-10-11T08:02:50.779Z,23.10
2022-10-11T08:05:17.325Z,23.13
2022-10-11T08:07:43.809Z,23.15
2022-10-11T08:10:10.631Z,23.21
2022-10-11T08:12:37.206Z,23.20
2022-10-11T08:15:03.886Z,23.23
2022-10-11T08:17:30.431Z,23.29
2022-10-11T08:19:58.076Z,23.29
2022-10-11T08:22:24.542Z,23.33
2022-10-11T08:24:51.133Z,23.36
2022-10-11T08:27:17.619Z,23.41
2022-10-11T08:29:44.041Z,23.44
2022-10-11T08:32:12.218Z,23.45
2022-10-11T08:34:38.781Z,23.47
2022-10-11T08:37:05.423Z,23.51
2022-10-11T08:39:32.060Z,23.51
2022-10-11T08:42:20.342Z,23.55
2022-10-11T08:45:10.105Z,23.61
2022-10-11T08:47:41.039Z,23.60
2022-10-11T08:50:15.416Z,23.65
2022-10-11T08:52:53.642Z,23.68
2022-10-11T08:55:29.121Z,23.71
2022-10-11T08:57:56.608Z,23.73
2022-10-11T09:00:24.133Z,23.76
2022-10-11T09:03:14.451Z,23.80
2022-10-11T09:05:58.476Z,23.86
2022-10-11T09:08:46.812Z,23.89
2022-10-11T09:12:08.099Z,23.92
2022-10-11T09:14:53.020Z,23.95
2022-10-11T09:17:51.541Z,23.95
2022-10-11T09:20:49.505Z,23.99
2022-10-11T09:23:22.182Z,24.02
2022-10-11T09:25:55.729Z,24.04
2022-10-11T09:28:35.256Z,24.07
2022-10-11T09:31:01.737Z,24.11
2022-10-11T09:33:36.864Z,24.15
2022-10-11T09:36:16.479Z,24.17
2022-10-11T09:39:06.494Z,24.21
2022-10-11T09:42:05.489Z,24.27
2022-10-11T09:44:46.926Z,24.29
2022-10-11T09:47:26.000Z,24.32
2022-10-11T09:50:16.658Z,24.35
2022-10-11T09:52:55.039Z,24.37
2022-10-11T09:55:30.411Z,24.41
2022-10-11T09:57:56.918Z,24.45
2022-10-11T10:00:30.066Z,24.47
2022-10-11T10:03:05.307Z,24.50
2022-10-11T10:05:35.257Z,24.54
2022-10-11T10:08:20.291Z,24.54
2022-10-11T10:10:58.487Z,24.55
2022-10-11T10:13:40.737Z,24.59
2022-10-11T10:16:11.669Z,24.65
2022-10-11T10:18:48.809Z,24.66
2022-10-11T10:21:16.160Z,24.67
2022-10-11T10:23:43.378Z,24.72
2022-10-11T10:26:22.726Z,24.76
2022-10-11T10:29:09.704Z,24.78
2022-10-11T10:31:55.302Z,24.83
2022-10-11T10:34:35.254Z,24.86
2022-10-11T10:37:09.499Z,24.90
2022-10-11T10:39:47.128Z,24.92
2022-10-11T10:42:18.302Z,24.95
2022-10-11T10:44:54.595Z,24.97
2022-10-11T10:48:01.381Z,25.01
2022-10-11T10:50:50.087Z,25.03
2022-10-11T10:53:39.547Z,25.07
2022-10-11T10:56:27.559Z,25.09
2022-10-11T10:59:11.344Z,25.11
2022-10-11T11:02:28.093Z,25.14
2022-10-11T11:05:26.642Z,25.17
2022-10-11T11:08:16.527Z,25.19
2022-10-11T11:10:57.602Z,25.22
2022-10-11T11:13:36.221Z,25.25
2022-10-11T11:16:36.799Z,25.28
2022-10-11T11:19:17.507Z,25.31
2022-10-11T11:22:01.994Z,25.32
2022-10-11T11:24:54.363Z,25.36
2022-10-11T11:27:44.228Z,25.38
2022-10-11T11:30:21.478Z,25.42
2022-10-11T11:33:13.422Z,25.43
2022-10-11T11:35:48.441Z,25.46
2022-10-11T11:38:40.953Z,25.47
2022-10-11T11:41:26.238Z,25.48
2022-10-11T11:43:58.444Z,25.50
2022-10-11T11:46:30.338Z,25.54
2022-10-11T11:49:00.371Z,25.53
2022-10-11T11:51:35.279Z,25.54
2022-10-11T11:54:20.334Z,25.54
2022-10-11T11:56:55.674Z,25.55
2022-10-11T11:59:43.423Z,25.56
2022-10-11T12:02:29.015Z,25.53
2022-10-11T12:04:56.309Z,25.49
2022-10-11T12:07:24.893Z,25.47
2022-10-11T12:10:16.702Z,25.44
2022-10-11T12:12:43.385Z,25.42
2022-10-11T12:15:09.941Z,25.33
2022-10-11T12:17:58.824Z,25.30
2022-10-11T12:20:32.067Z,25.28
2022-10-11T12:23:44.511Z,25.23
2022-10-11T12:26:29.120Z,25.22
2022-10-11T12:29:20.141Z,25.15
2022-10-11T12:32:13.757Z,25.11
2022-10-11T12:34:43.185Z,25.10
2022-10-11T12:37:18.800Z,25.09
2022-10-11T12:39:51.631Z,25.06
2022-10-11T12:42:25.988Z,25.07
2022-10-11T12:45:10.817Z,25.05
2022-10-11T12:48:12.747Z,25.05
2022-10-11T12:51:13.251Z,25.03
2022-10-11T12:54:25.014Z,25.03
2022-10-11T12:57:16.125Z,25.02
2022-10-11T12:59:46.519Z,25.00
2022-10-11T13:02:37.387Z,24.95
2022-10-11T13:05:16.563Z,24.95
2022-10-11T13:07:43.343Z,24.94
2022-10-11T13:10:15.758Z,24.92
2022-10-11T13:12:44.805Z,24.90
2022-10-11T13:15:18.114Z,24.86
2022-10-11T13:17:44.785Z,24.87
2022-10-11T13:20:19.971Z,24.86
2022-10-11T13:22:50.314Z,24.83
2022-10-11T13:25:37.582Z,24.81
2022-10-11T13:28:08.860Z,24.79
2022-10-11T13:30:36.916Z,24.76
2022-10-11T13:33:11.095Z,24.74
2022-10-11T13:35:38.605Z,24.71
2022-10-11T13:38:09.055Z,24.69
2022-10-11T13:40:35.915Z,24.66
2022-10-11T13:43:05.246Z,24.64
2022-10-11T13:45:32.724Z,24.61
2022-10-11T13:47:59.386Z,24.58
2022-10-11T13:50:35.170Z,24.52
2022-10-11T13:53:21.844Z,24.51
2022-10-11T13:55:54.463Z,24.46
2022-10-11T13:58:30.057Z,24.43
2022-10-11T14:01:03.029Z,24.42
2022-10-11T14:03:41.174Z,24.37
2022-10-11T14:06:13.553Z,24.33
2022-10-11T14:08:44.549Z,24.32
2022-10-11T14:11:13.059Z,24.27
2022-10-11T14:13:47.028Z,24.25
2022-10-11T14:16:34.899Z,24.21
2022-10-11T14:19:01.285Z,24.19
2022-10-11T14:21:32.146Z,24.16
2022-10-11T14:24:07.490Z,24.14
2022-10-11T14:26:37.021Z,24.11
2022-10-11T14:29:31.259Z,24.08
2022-10-11T14:32:08.144Z,24.06
2022-10-11T14:34:34.760Z,24.05
2022-10-11T14:37:01.276Z,24.01
2022-10-11T14:39:30.725Z,23.99
2022-10-11T14:41:57.230Z,23.96
2022-10-11T14:44:24.498Z,23.94
2022-10-11T14:46:54.526Z,23.93
2022-10-11T14:49:25.174Z,23.91
2022-10-11T14:51:53.179Z,23.91
2022-10-11T14:54:24.977Z,23.87
2022-10-11T14:56:53.717Z,23.84
2022-10-11T14:59:23.501Z,23.83
2022-10-11T15:01:51.957Z,23.80
2022-10-11T15:04:19.962Z,23.79
2022-10-11T15:06:46.431Z,23.76
2022-10-11T15:09:12.901Z,23.73
2022-10-11T15:11:39.860Z,23.74
2022-10-11T15:14:06.769Z,23.72
2022-10-11T15:16:33.959Z,23.71
2022-10-11T15:19:00.523Z,23.67
2022-10-11T15:21:28.546Z,23.65
2022-10-11T15:23:55.739Z,23.63
2022-10-11T15:26:27.640Z,23.63
2022-10-11T15:28:57.581Z,23.60
2022-10-11T15:31:24.311Z,23.60
2022-10-11T15:33:51.398Z,23.57
2022-10-11T15:36:21.141Z,23.56
2022-10-11T15:38:49.041Z,23.54
2022-10-11T15:41:17.577Z,23.51
2022-10-11T15:43:45.263Z,23.51
2022-10-11T15:46:19.773Z,23.49
2022-10-11T15:48:47.391Z,23.47
2022-10-11T15:51:15.387Z,23.46
2022-10-11T15:53:42.149Z,23.44
2022-10-11T15:56:15.191Z,23.43
2022-10-11T15:58:41.980Z,23.42
2022-10-11T16:01:19.835Z,23.41
2022-10-11T16:03:48.477Z,23.40
2022-10-11T16:06:15.877Z,23.41
2022-10-11T16:08:42.375Z,23.36
2022-10-11T16:11:10.366Z,23.34
2022-10-11T16:13:36.854Z,23.34
2022-10-11T16:16:06.158Z,23.32
2022-10-11T16:18:35.533Z,23.30
2022-10-11T16:21:06.285Z,23.30
2022-10-11T16:23:33.116Z,23.28
2022-10-11T16:26:01.681Z,23.27
2022-10-11T16:28:29.263Z,23.27
2022-10-11T16:30:55.971Z,23.26
2022-10-11T16:33:22.937Z,23.23
2022-10-11T16:35:49.382Z,23.24
2022-10-11T16:38:15.842Z,23.23
2022-10-11T16:40:43.190Z,23.19
2022-10-11T16:43:10.048Z,23.21
2022-10-11T16:45:36.613Z,23.19
2022-10-11T16:48:03.823Z,23.18
2022-10-11T16:50:30.247Z,23.17
2022-10-11T16:52:56.746Z,23.14
2022-10-11T16:55:23.455Z,23.15
2022-10-11T16:57:49.888Z,23.14
2022-10-11T17:00:16.801Z,23.12
2022-10-11T17:02:43.254Z,23.10
2022-10-11T17:05:09.649Z,23.09
2022-10-11T17:07:36.179Z,23.10
2022-10-11T17:10:02.950Z,23.10
2022-10-11T17:12:29.722Z,23.08
2022-10-11T17:14:56.457Z,23.08
2022-10-11T17:17:22.935Z,23.06
2022-10-11T17:19:49.715Z,23.05
2022-10-11T17:22:19.242Z,23.06
2022-10-11T17:24:46.161Z,23.05
2022-10-11T17:27:12.781Z,23.03
2022-10-11T17:29:39.493Z,23.03
2022-10-11T17:32:06.466Z,23.01
2022-10-11T17:34:33.080Z,23.02
2022-10-11T17:36:59.498Z,23.00
2022-10-11T17:39:25.960Z,23.01
2022-10-11T17:41:53.911Z,22.99
2022-10-11T17:44:21.737Z,22.98
2022-10-11T17:46:48.701Z,22.99
2022-10-11T17:49:15.812Z,22.97
2022-10-11T17:51:43.146Z,22.96
2022-10-11T17:54:12.686Z,22.97
2022-10-11T17:56:41.658Z,22.94
2022-10-11T17:59:14.390Z,22.94
2022-10-11T18:01:40.930Z,22.93
2022-10-11T18:04:07.737Z,22.92
2022-10-11T18:06:39.033Z,22.94
2022-10-11T18:09:05.966Z,22.91
2022-10-11T18:11:32.937Z,22.89
2022-10-11T18:13:59.655Z,22.90
2022-10-11T18:16:28.473Z,22.88
2022-10-11T18:18:57.287Z,22.89
2022-10-11T18:21:28.672Z,22.89
2022-10-11T18:24:02.835Z,22.87
2022-10-11T18:26:30.662Z,22.87
2022-10-11T18:28:58.462Z,22.86
2022-10-11T18:31:28.053Z,22.85
2022-10-11T18:33:55.454Z,22.84
2022-10-11T18:36:24.667Z,22.84
2022-10-11T18:38:57.862Z,22.84
2022-10-11T18:41:30.633Z,22.84
2022-10-11T18:43:58.251Z,22.83
2022-10-11T18:46:25.186Z,22.84
2022-10-11T18:48:53.550Z,22.82
2022-10-11T18:51:25.580Z,22.82
2022-10-11T18:53:52.543Z,22.80
2022-10-11T18:56:20.733Z,22.78
2022-10-11T18:58:48.619Z,22.78
2022-10-11T19:01:23.807Z,22.78
2022-10-11T19:03:56.462Z,22.78
2022-10-11T19:06:27.550Z,22.77
2022-10-11T19:08:56.420Z,22.76
2022-10-11T19:11:25.206Z,22.75
2022-10-11T19:13:59.565Z,22.74
2022-10-11T19:16:29.331Z,22.75
2022-10-11T19:18:56.825Z,22.74
2022-10-11T19:21:23.505Z,22.73
2022-10-11T19:23:50.591Z,22.73
2022-10-11T19:26:21.901Z,22.74
2022-10-11T19:28:54.610Z,22.73
2022-10-11T19:31:21.017Z,22.72
2022-10-11T19:33:49.525Z,22.71
2022-10-11T19:36:16.340Z,22.70
2022-10-11T19:38:45.840Z,22.69
2022-10-11T19:41:13.436Z,22.69
2022-10-11T19:43:39.946Z,22.68
2022-10-11T19:46:09.587Z,22.67
2022-10-11T19:48:39.555Z,22.66
2022-10-11T19:51:08.640Z,22.66
2022-10-11T19:53:36.006Z,22.66
2022-10-11T19:56:05.083Z,22.66
2022-10-11T19:58:31.683Z,22.65
2022-10-11T20:01:12.191Z,22.66
2022-10-11T20:03:38.944Z,22.64
2022-10-11T20:06:07.583Z,22.64
2022-10-11T20:08:35.448Z,22.63
2022-10-11T20:11:07.166Z,22.63
2022-10-11T20:13:35.126Z,22.63
2022-10-11T20:16:10.922Z,22.62
2022-10-11T20:18:38.489Z,22.61
2022-10-11T20:21:12.108Z,22.59
2022-10-11T20:26:21.120Z,22.59
2022-10-11T20:28:52.389Z,22.58
2022-10-11T20:31:33.308Z,22.58
2022-10-11T20:34:02.210Z,22.58
2022-10-11T20:36:30.131Z,22.56
2022-10-11T20:38:57.972Z,22.57
2022-10-11T20:41:27.526Z,22.56
2022-10-11T20:43:56.813Z,22.55
2022-10-11T20:46:25.352Z,22.56
2022-10-11T20:49:01.970Z,22.55
2022-10-11T20:51:30.299Z,22.54
2022-10-11T20:53:57.261Z,22.53
2022-10-11T20:56:23.799Z,22.51
2022-10-11T20:58:52.613Z,22.52
2022-10-11T21:01:21.973Z,22.51
2022-10-11T21:03:48.545Z,22.51
2022-10-11T21:06:14.985Z,22.52
2022-10-11T21:08:43.918Z,22.51
2022-10-11T21:11:11.049Z,22.49
2022-10-11T21:13:38.105Z,22.49
2022-10-11T21:16:15.309Z,22.49
2022-10-11T21:18:44.876Z,22.49
2022-10-11T21:21:13.734Z,22.47
2022-10-11T21:23:41.276Z,22.47
2022-10-11T21:26:13.725Z,22.46
2022-10-11T21:28:41.193Z,22.46
2022-10-11T21:31:10.130Z,22.43
2022-10-11T21:33:37.105Z,22.46
2022-10-11T21:36:08.634Z,22.46
2022-10-11T21:38:35.936Z,22.45
2022-10-11T21:41:10.393Z,22.45
2022-10-11T21:43:38.309Z,22.44
2022-10-11T21:46:10.862Z,22.43
2022-10-11T21:48:37.433Z,22.44
2022-10-11T21:51:04.257Z,22.43
2022-10-11T21:53:30.778Z,22.43
2022-10-11T21:55:58.488Z,22.43
2022-10-11T21:58:24.970Z,22.41
2022-10-11T22:00:52.258Z,22.41
2022-10-11T22:03:19.204Z,22.41
2022-10-11T22:05:46.923Z,22.41
2022-10-11T22:08:14.141Z,22.40
2022-10-11T22:10:45.020Z,22.38
2022-10-11T22:13:11.977Z,22.39
2022-10-11T22:15:39.508Z,22.39
2022-10-11T22:18:05.963Z,22.38
2022-10-11T22:20:33.138Z,22.37
2022-10-11T22:22:59.775Z,22.37
2022-10-11T22:25:26.291Z,22.37
2022-10-11T22:27:52.692Z,22.36
2022-10-11T22:30:19.099Z,22.36
2022-10-11T22:32:45.536Z,22.33
2022-10-11T22:35:11.920Z,22.33
2022-10-11T22:37:38.453Z,22.31
2022-10-11T22:40:05.895Z,22.32
2022-10-11T22:42:32.326Z,22.32
2022-10-11T22:44:58.755Z,22.32
2022-10-11T22:47:25.628Z,22.31
2022-10-11T22:49:51.982Z,22.30
2022-10-11T22:52:18.414Z,22.31
2022-10-11T22:54:44.850Z,22.29
2022-10-11T22:57:11.282Z,22.31
2022-10-11T22:59:37.695Z,22.28
2022-10-11T23:02:04.223Z,22.30
2022-10-11T23:04:30.667Z,22.28
2022-10-11T23:07:01.211Z,22.26
2022-10-11T23:09:31.666Z,22.26
2022-10-11T23:11:59.485Z,22.27
2022-10-11T23:14:25.882Z,22.27
2022-10-11T23:16:52.466Z,22.26
2022-10-11T23:19:19.052Z,22.24
2022-10-11T23:21:45.461Z,22.23
2022-10-11T23:24:11.926Z,22.24
2022-10-11T23:26:38.311Z,22.24
2022-10-11T23:29:04.753Z,22.24
2022-10-11T23:31:31.150Z,22.23
2022-10-11T23:33:57.880Z,22.23
2022-10-11T23:36:25.915Z,22.21
2022-10-11T23:38:57.665Z,22.21
2022-10-11T23:41:26.464Z,22.22
2022-10-11T23:43:53.426Z,22.20
2022-10-11T23:46:20.186Z,22.19
2022-10-11T23:48:46.667Z,22.19
2022-10-11T23:51:13.501Z,22.19
2022-10-11T23:53:40.207Z,22.17
2022-10-11T23:56:07.324Z,22.18
2022-10-11T23:58:33.875Z,22.17
